Time;durP1;ratioP1;P1;durP2;ratioP2;P2;SDS_P1;SDS_P2;PMS_P1;PMS_P2;Temp;Humidity;BMP_temperature;BMP_pressure;BME280_temperature;BME280_humidity;BME280_pressure;Samples;Min_cycle;Max_cycle;Signal;HPM_P1;HPM_P2
2021/01/18 00:00:02;;;;;;;;;;;;;;;;;;5136293;27;20267;-59
2021/01/18 00:02:28;;;;;;;;;;;;;;;;;;5135857;27;19912;-60
2021/01/18 00:04:54;;;;;;;;;;;;;;;;;;5136096;27;19976;-60
2021/01/18 00:07:20;;;;;;;;;;;;;;;;;;5136257;27;19907;-59
2021/01/18 00:09:46;;;;;;;;;;;;;;;;;;5135894;27;20389;-59
2021/01/18 00:12:12;;;;;;;;;;;;;;;;;;5117636;27;19915;-59
2021/01/18 00:14:38;;;;;;;;;;;;;;;;;;5134866;27;19907;-59
2021/01/18 00:17:04;;;;;;;;;;;;;;;;;;5117174;27;20308;-59
2021/01/18 00:19:30;;;;;;;;;;;;;;;;;;5136151;27;19907;-59
2021/01/18 00:21:56;;;;;;;;;;;;;;;;;;5135836;27;20283;-60
2021/01/18 00:24:22;;;;;;;;;;;;;;;;;;5135418;27;19952;-60
2021/01/18 00:26:48;;;;;;;;;;;;;;;;;;5135703;27;19907;-59
2021/01/18 00:29:14;;;;;;;;;;;;;;;;;;5135748;27;19907;-59
2021/01/18 00:31:40;;;;;;;;;;;;;;;;;;5135380;27;19954;-60
2021/01/18 00:34:06;;;;;;;;;;;;;;;;;;5135609;27;20291;-59
2021/01/18 00:36:32;;;;;;;;;;;;;;;;;;5135808;27;19998;-59
2021/01/18 00:38:58;;;;;;;;;;;;;;;;;;5135027;27;20363;-60
2021/01/18 00:41:24;;;;;;;;;;;;;;;;;;5135374;27;19908;-59
2021/01/18 00:43:50;;;;;;;;;;;;;;;;;;5135034;27;19957;-59
2021/01/18 00:46:16;;;;;;;;;;;;;;;;;;5135453;27;20316;-59
2021/01/18 00:48:42;;;;;;;;;;;;;;;;;;5135586;27;19908;-59
2021/01/18 00:51:08;;;;;;;;;;;;;;;;;;5134757;27;20423;-59
2021/01/18 00:53:34;;;;;;;;;;;;;;;;;;5135106;27;19923;-59
2021/01/18 00:56:00;;;;;;;;;;;;;;;;;;5135147;27;19968;-59
2021/01/18 00:58:26;;;;;;;;;;;;;;;;;;5134787;27;19907;-59
2021/01/18 01:00:51;;;;;;;;;;;;;;;;;;5135211;27;20002;-59
2021/01/18 01:03:17;;;;;;;;;;;;;;;;;;5134988;27;19907;-59
2021/01/18 01:05:43;;;;;;;;;;;;;;;;;;5134597;27;19908;-59
2021/01/18 01:08:09;;;;;;;;;;;;;;;;;;5135412;27;19954;-59
2021/01/18 01:10:35;;;;;;;;;;;;;;;;;;5134922;27;20385;-59
2021/01/18 01:13:01;;;;;;;;;;;;;;;;;;5134404;27;19922;-59
2021/01/18 01:15:27;;;;;;;;;;;;;;;;;;5134717;27;19907;-59
2021/01/18 01:17:53;;;;;;;;;;;;;;;;;;5134935;27;19911;-60
2021/01/18 01:20:19;;;;;;;;;;;;;;;;;;5134276;27;20340;-59
2021/01/18 01:32:38;;;;;;;;;;;;;;;;;;5151261;27;19919;-59
2021/01/18 01:37:44;;;;;;;;;;;;;;;;;;5111367;27;19912;-60
2021/01/18 02:14:44;;;;;;;;;;;;;;;;;;5091370;27;19913;-59
2021/01/18 02:17:10;;;;;;;;;;;;;;;;;;5089842;28;19916;-59
2021/01/18 02:19:36;;;;;;;;;;;;;;;;;;5090279;28;19970;-59
2021/01/18 02:22:02;;;;;;;;;;;;;;;;;;5090085;28;20011;-59
2021/01/18 02:34:23;;;;;;;;;;;;;;;;;;5090241;28;19923;-76
2021/01/18 02:36:49;;;;;;;;;;;;;;;;;;5089770;28;20011;-76
2021/01/18 02:39:15;;;;;;;;;;;;;;;;;;5090419;28;19944;-76
2021/01/18 02:41:41;;;;;;;;;;;;;;;;;;5090046;28;19934;-76
2021/01/18 02:44:07;;;;;;;;;;;;;;;;;;5089625;28;19912;-76
2021/01/18 02:46:33;;;;;;;;;;;;;;;;;;5090082;28;19947;-76
2021/01/18 02:48:59;;;;;;;;;;;;;;;;;;5090184;28;19909;-76
2021/01/18 02:56:37;;;;;;;;;;;;;;;;;;5102378;27;19923;-60
2021/01/18 02:59:03;;;;;;;;;;;;;;;;;;5069692;28;19955;-59
2021/01/18 03:01:29;;;;;;;;;;;;;;;;;;5069999;28;19931;-59
2021/01/18 03:03:55;;;;;;;;;;;;;;;;;;5068578;28;19908;-59
2021/01/18 03:06:21;;;;;;;;;;;;;;;;;;5069618;28;19908;-58
2021/01/18 03:08:47;;;;;;;;;;;;;;;;;;5070166;28;19909;-58
2021/01/18 03:11:13;;;;;;;;;;;;;;;;;;5069827;28;19916;-59
2021/01/18 03:13:39;;;;;;;;;;;;;;;;;;5069265;28;20026;-58
2021/01/18 03:16:05;;;;;;;;;;;;;;;;;;5070198;28;19917;-59
2021/01/18 03:18:31;;;;;;;;;;;;;;;;;;5069416;28;20435;-59
2021/01/18 03:20:57;;;;;;;;;;;;;;;;;;5069894;28;19908;-59
2021/01/18 03:36:35;;;;;;;;;;;;;;;;;;5090295;27;20307;-59
2021/01/18 03:39:01;;;;;;;;;;;;;;;;;;5090269;28;19912;-59
2021/01/18 03:48:45;;;;;;;;;;;;;;;;;;5069932;28;19913;-59
2021/01/18 03:51:11;;;;;;;;;;;;;;;;;;5070161;28;20363;-59
2021/01/18 03:53:37;;;;;;;;;;;;;;;;;;5069862;28;19944;-59
2021/01/18 04:16:50;;;;;;;;;;;;;;;;;;5089871;27;19917;-76
2021/01/18 04:19:16;;;;;;;;;;;;;;;;;;5090257;28;19912;-76
2021/01/18 04:21:42;;;;;;;;;;;;;;;;;;5090537;28;19908;-76
2021/01/18 04:30:45;;;;;;;;;;;;;;;;;;5090176;27;19923;-59
2021/01/18 04:33:11;;;;;;;;;;;;;;;;;;5090337;28;19991;-59
2021/01/18 04:35:37;;;;;;;;;;;;;;;;;;5090065;28;19966;-59
2021/01/18 04:43:43;;;;;;;;;;;;;;;;;;5092644;27;19919;-61
2021/01/18 04:46:12;;;;;;;;;;;;;;;;;;5090643;28;19912;-59
2021/01/18 04:48:38;;;;;;;;;;;;;;;;;;5090418;28;20380;-58
2021/01/18 04:51:04;;;;;;;;;;;;;;;;;;5089786;28;19908;-59
2021/01/18 04:53:30;;;;;;;;;;;;;;;;;;5090153;28;19970;-59
2021/01/18 04:55:56;;;;;;;;;;;;;;;;;;5090104;28;20422;-59
2021/01/18 04:58:22;;;;;;;;;;;;;;;;;;5089855;28;19912;-59
2021/01/18 05:00:48;;;;;;;;;;;;;;;;;;5090072;28;19961;-59
2021/01/18 05:03:14;;;;;;;;;;;;;;;;;;5089916;28;19924;-59
2021/01/18 05:05:40;;;;;;;;;;;;;;;;;;5089635;28;19908;-59
